createdAt,value
2022-12-06T00:01:14.673Z,165.50
2022-12-06T00:05:05.243Z,140.70
2022-12-06T00:08:58.335Z,158.40
2022-12-06T00:12:48.506Z,167.10
2022-12-06T00:16:38.907Z,165.70
2022-12-06T00:20:48.050Z,179.10
2022-12-06T00:24:09.590Z,180.00
2022-12-06T00:27:59.874Z,155.00
2022-12-06T00:31:51.037Z,154.90
2022-12-06T00:35:41.392Z,185.20
2022-12-06T00:39:31.897Z,190.90
2022-12-06T00:43:22.199Z,193.80
2022-12-06T00:47:12.497Z,179.70
2022-12-06T00:51:02.900Z,177.00
2022-12-06T00:54:53.610Z,167.60
2022-12-06T00:58:44.521Z,152.00
2022-12-06T01:02:35.025Z,156.10
2022-12-06T01:06:28.919Z,154.40
2022-12-06T01:10:19.310Z,158.50
2022-12-06T01:14:09.728Z,138.20
2022-12-06T01:17:59.906Z,137.80
2022-12-06T01:21:50.099Z,134.10
2022-12-06T01:25:48.698Z,150.00
2022-12-06T01:29:39.097Z,164.60
2022-12-06T01:33:29.194Z,155.00
2022-12-06T01:37:19.595Z,169.40
2022-12-06T01:41:09.442Z,172.70
2022-12-06T01:45:00.201Z,166.70
2022-12-06T01:48:56.621Z,162.00
2022-12-06T01:52:53.183Z,169.40
2022-12-06T01:56:44.102Z,171.10
2022-12-06T02:00:35.830Z,179.20
2022-12-06T02:04:27.767Z,180.30
2022-12-06T02:08:38.036Z,182.20
2022-12-06T02:11:55.667Z,176.60
2022-12-06T02:16:00.545Z,170.70
2022-12-06T02:20:09.348Z,161.10
2022-12-06T02:24:17.464Z,162.00
2022-12-06T02:28:34.792Z,165.60
2022-12-06T02:32:34.730Z,173.00
2022-12-06T02:36:38.773Z,194.50
2022-12-06T02:40:36.925Z,178.30
2022-12-06T02:44:34.024Z,173.00
2022-12-06T02:48:26.573Z,181.60
2022-12-06T02:52:20.484Z,185.70
2022-12-06T02:56:12.709Z,170.20
2022-12-06T03:00:37.151Z,172.00
2022-12-06T03:04:46.696Z,164.10
2022-12-06T03:08:59.072Z,154.70
2022-12-06T03:13:10.774Z,211.10
2022-12-06T03:17:16.370Z,253.80
2022-12-06T03:21:24.750Z,190.10
2022-12-06T03:25:15.769Z,197.60
2022-12-06T03:29:09.128Z,177.00
2022-12-06T03:33:01.365Z,191.90
2022-12-06T03:36:53.330Z,189.60
2022-12-06T03:40:48.338Z,182.00
2022-12-06T03:44:38.945Z,192.90
2022-12-06T03:48:43.591Z,195.70
2022-12-06T03:52:34.284Z,191.80
2022-12-06T03:56:25.510Z,193.60
2022-12-06T04:00:16.834Z,211.20
2022-12-06T04:04:07.365Z,194.30
2022-12-06T04:07:58.110Z,183.30
2022-12-06T04:11:48.666Z,205.50
2022-12-06T04:15:40.047Z,208.80
2022-12-06T04:19:30.480Z,216.10
2022-12-06T04:23:21.909Z,207.60
2022-12-06T04:27:30.530Z,199.30
2022-12-06T04:31:40.860Z,204.10
2022-12-06T04:35:49.941Z,216.00
2022-12-06T04:39:40.550Z,206.10
2022-12-06T04:43:43.152Z,164.90
2022-12-06T04:47:52.150Z,200.00
2022-12-06T04:51:13.601Z,202.30
2022-12-06T04:55:05.135Z,212.30
2022-12-06T04:58:55.325Z,226.40
2022-12-06T05:02:45.624Z,194.60
2022-12-06T05:06:35.822Z,216.20
2022-12-06T05:10:26.121Z,292.00
2022-12-06T05:14:17.034Z,216.20
2022-12-06T05:18:07.231Z,197.20
2022-12-06T05:21:57.326Z,205.50
2022-12-06T05:25:47.833Z,186.80
2022-12-06T05:29:37.720Z,192.50
2022-12-06T05:33:29.015Z,188.00
2022-12-06T05:37:19.138Z,203.00
2022-12-06T05:41:09.846Z,193.50
2022-12-06T05:45:00.050Z,232.50
2022-12-06T05:48:50.752Z,200.60
2022-12-06T05:52:41.773Z,179.30
2022-12-06T05:56:32.293Z,175.00
2022-12-06T06:00:22.880Z,195.70
2022-12-06T06:04:13.283Z,164.10
2022-12-06T06:08:03.525Z,170.50
2022-12-06T06:11:54.907Z,159.90
2022-12-06T06:15:45.204Z,183.60
2022-12-06T06:19:35.606Z,204.30
2022-12-06T06:23:28.568Z,183.80
2022-12-06T06:27:18.869Z,168.10
2022-12-06T06:31:09.180Z,165.50
2022-12-06T06:34:59.978Z,163.10
2022-12-06T06:38:52.468Z,170.60
2022-12-06T06:42:43.445Z,200.80
2022-12-06T06:46:33.590Z,159.50
2022-12-06T06:50:42.896Z,160.00
2022-12-06T06:54:01.879Z,277.50
2022-12-06T06:57:52.378Z,258.50
2022-12-06T07:02:01.296Z,207.00
2022-12-06T07:05:20.256Z,185.50
2022-12-06T07:09:11.476Z,155.50
2022-12-06T07:13:02.087Z,150.10
2022-12-06T07:16:52.209Z,149.20
2022-12-06T07:20:44.119Z,172.00
2022-12-06T07:24:39.872Z,154.10
2022-12-06T07:28:34.955Z,144.40
2022-12-06T07:32:24.948Z,160.20
2022-12-06T07:36:35.131Z,173.40
2022-12-06T07:39:52.896Z,169.90
2022-12-06T07:44:02.095Z,190.60
2022-12-06T07:47:52.189Z,156.50
2022-12-06T07:51:43.816Z,206.90
2022-12-06T07:55:33.959Z,184.00
2022-12-06T07:59:25.238Z,168.80
2022-12-06T08:03:15.228Z,177.80
2022-12-06T08:07:05.323Z,212.70
2022-12-06T08:10:59.949Z,187.60
2022-12-06T08:14:52.328Z,145.00
2022-12-06T08:18:45.555Z,121.80
2022-12-06T08:22:36.045Z,120.50
2022-12-06T08:26:26.553Z,103.30
2022-12-06T08:30:17.052Z,88.40
2022-12-06T08:34:09.030Z,115.10
2022-12-06T08:37:59.281Z,103.30
2022-12-06T08:41:55.531Z,95.30
2022-12-06T08:45:51.960Z,107.50
2022-12-06T08:49:41.968Z,108.30
2022-12-06T08:53:35.673Z,109.00
2022-12-06T08:57:26.763Z,107.10
2022-12-06T09:01:20.112Z,99.20
2022-12-06T09:05:10.516Z,103.60
2022-12-06T09:09:01.152Z,105.00
2022-12-06T09:12:51.645Z,95.00
2022-12-06T09:16:43.605Z,124.10
2022-12-06T09:20:34.190Z,104.40
2022-12-06T09:24:24.797Z,111.50
2022-12-06T09:28:15.712Z,132.10
2022-12-06T09:32:05.468Z,132.30
2022-12-06T09:35:57.232Z,177.70
2022-12-06T09:39:53.303Z,122.40
2022-12-06T09:43:56.059Z,163.20
2022-12-06T09:48:26.908Z,139.00
2022-12-06T09:51:32.355Z,136.70
2022-12-06T09:55:35.560Z,218.70
2022-12-06T09:59:54.078Z,212.60
2022-12-06T10:03:53.839Z,210.20
2022-12-06T10:08:23.977Z,155.30
2022-12-06T10:12:56.904Z,158.00
2022-12-06T10:17:08.732Z,179.80
2022-12-06T10:21:21.401Z,180.80
2022-12-06T10:25:26.078Z,151.50
2022-12-06T10:29:42.859Z,154.10
2022-12-06T10:33:48.926Z,168.30
2022-12-06T10:38:06.473Z,421.00
2022-12-06T10:42:21.751Z,325.20
2022-12-06T10:46:53.587Z,190.40
2022-12-06T10:50:49.146Z,143.10
2022-12-06T10:54:47.906Z,148.90
2022-12-06T10:58:55.450Z,137.40
2022-12-06T11:03:03.973Z,139.40
2022-12-06T11:07:08.814Z,131.90
2022-12-06T11:11:01.461Z,156.30
2022-12-06T11:15:35.698Z,188.40
2022-12-06T11:18:30.472Z,141.70
2022-12-06T11:22:42.506Z,491.10
2022-12-06T11:26:46.936Z,575.20
2022-12-06T11:30:38.054Z,681.80
2022-12-06T11:34:47.400Z,324.40
2022-12-06T11:38:41.591Z,222.60
2022-12-06T11:42:31.687Z,225.60
2022-12-06T11:46:24.206Z,157.40
2022-12-06T11:50:19.460Z,148.10
2022-12-06T11:54:34.226Z,166.60
2022-12-06T11:58:52.555Z,124.40
2022-12-06T12:02:46.479Z,144.60
2022-12-06T12:06:36.976Z,210.30
2022-12-06T12:11:01.179Z,134.10
2022-12-06T12:14:57.561Z,105.50
2022-12-06T12:19:03.780Z,128.50
2022-12-06T12:23:14.766Z,123.20
2022-12-06T12:27:37.426Z,97.70
2022-12-06T12:32:09.791Z,131.50
2022-12-06T12:35:20.790Z,128.90
2022-12-06T12:39:23.277Z,161.60
2022-12-06T12:43:21.429Z,182.90
2022-12-06T12:47:20.181Z,102.90
2022-12-06T12:51:36.256Z,102.00
2022-12-06T12:55:29.834Z,108.20
2022-12-06T12:59:24.433Z,87.00
2022-12-06T13:03:50.210Z,162.50
2022-12-06T13:07:35.942Z,218.10
2022-12-06T13:11:28.612Z,121.00
2022-12-06T13:15:24.549Z,94.10
2022-12-06T13:19:18.862Z,114.70
2022-12-06T13:23:21.322Z,106.20
2022-12-06T13:27:16.868Z,98.50
2022-12-06T13:31:14.101Z,101.40
2022-12-06T13:35:20.073Z,101.20
2022-12-06T13:39:35.668Z,117.10
2022-12-06T13:43:26.273Z,95.60
2022-12-06T13:47:29.883Z,96.80
2022-12-06T13:51:32.814Z,104.30
2022-12-06T13:55:26.043Z,140.10
2022-12-06T13:59:16.040Z,100.50
2022-12-06T14:03:18.936Z,110.10
2022-12-06T14:11:38.169Z,110.70
2022-12-06T14:15:30.896Z,101.10
2022-12-06T14:19:46.494Z,84.60
2022-12-06T14:23:48.483Z,111.70
2022-12-06T14:27:48.283Z,117.50
2022-12-06T14:31:40.126Z,88.00
2022-12-06T14:35:36.317Z,76.80
2022-12-06T14:39:29.835Z,67.10
2022-12-06T14:43:22.284Z,80.40
2022-12-06T14:47:16.270Z,73.70
2022-12-06T14:51:06.772Z,76.80
2022-12-06T14:55:12.432Z,74.10
2022-12-06T14:59:11.025Z,84.80
2022-12-06T15:03:13.505Z,99.90
2022-12-06T15:07:04.731Z,97.70
2022-12-06T15:10:56.976Z,80.90
2022-12-06T15:14:50.112Z,98.00
2022-12-06T15:19:01.107Z,148.00
2022-12-06T15:22:53.197Z,135.10
2022-12-06T15:26:43.876Z,86.10
2022-12-06T15:30:34.074Z,73.20
2022-12-06T15:34:28.044Z,78.70
2022-12-06T15:38:18.876Z,115.50
2022-12-06T15:42:20.339Z,105.00
2022-12-06T15:46:18.757Z,102.30
2022-12-06T15:50:14.999Z,95.40
2022-12-06T15:54:07.226Z,112.10
2022-12-06T15:57:57.710Z,122.00
2022-12-06T16:01:51.060Z,106.40
2022-12-06T16:05:41.789Z,98.40
2022-12-06T16:09:32.091Z,81.80
2022-12-06T16:13:23.609Z,82.00
2022-12-06T16:17:14.125Z,83.90
2022-12-06T16:21:05.855Z,75.80
2022-12-06T16:24:55.848Z,70.80
2022-12-06T16:28:46.384Z,69.50
2022-12-06T16:32:36.959Z,70.40
2022-12-06T16:36:30.227Z,67.10
2022-12-06T16:40:22.986Z,78.70
2022-12-06T16:44:13.592Z,71.40
2022-12-06T16:48:05.827Z,67.20
2022-12-06T16:51:56.342Z,76.00
2022-12-06T16:55:47.870Z,60.70
2022-12-06T16:59:38.475Z,59.40
2022-12-06T17:03:29.297Z,64.10
2022-12-06T17:07:19.997Z,52.50
2022-12-06T17:59:53.147Z,67.70
2022-12-06T18:03:43.363Z,66.80
2022-12-06T18:07:34.047Z,66.40
2022-12-06T18:11:26.174Z,114.90
2022-12-06T18:15:37.361Z,70.10
2022-12-06T18:19:36.460Z,69.70
2022-12-06T18:23:29.019Z,81.30
2022-12-06T18:27:19.217Z,58.90
2022-12-06T18:31:11.273Z,60.10
2022-12-06T18:35:01.940Z,70.10
2022-12-06T18:38:52.479Z,71.00
2022-12-06T18:42:46.027Z,92.20
2022-12-06T18:46:43.036Z,81.00
2022-12-06T18:50:45.691Z,74.20
2022-12-06T18:54:37.833Z,68.30
2022-12-06T18:58:30.834Z,75.00
2022-12-06T19:02:23.658Z,70.10
2022-12-06T19:06:19.170Z,62.20
2022-12-06T19:10:13.325Z,64.10
2022-12-06T19:14:10.181Z,60.80
2022-12-06T19:18:02.876Z,59.50
2022-12-06T19:21:54.610Z,58.30
2022-12-06T19:25:47.724Z,63.30
2022-12-06T19:29:40.455Z,67.10
2022-12-06T19:33:36.701Z,60.10
2022-12-06T19:37:32.386Z,65.40
2022-12-06T19:41:24.875Z,52.20
2022-12-06T19:45:18.390Z,52.40
2022-12-06T19:49:11.895Z,49.10
2022-12-06T19:53:02.644Z,52.10
2022-12-06T19:56:58.032Z,58.90
2022-12-06T20:00:50.302Z,59.90
2022-12-06T20:04:44.160Z,53.60
2022-12-06T20:08:39.436Z,76.10
2022-12-06T20:12:34.842Z,65.00
2022-12-06T20:16:29.573Z,53.60
2022-12-06T20:20:25.654Z,48.20
2022-12-06T20:24:21.591Z,48.10
2022-12-06T20:28:13.748Z,50.50
2022-12-06T20:32:09.631Z,47.40
2022-12-06T20:36:13.017Z,44.70
2022-12-06T20:40:05.980Z,42.70
2022-12-06T20:43:58.864Z,40.80
2022-12-06T20:47:53.189Z,57.30
2022-12-06T20:51:48.101Z,57.90
2022-12-06T20:55:45.257Z,50.50
2022-12-06T20:59:37.365Z,53.90
2022-12-06T21:03:31.197Z,47.80
2022-12-06T21:07:21.853Z,50.50
2022-12-06T21:11:28.264Z,54.00
2022-12-06T21:15:20.065Z,51.00
2022-12-06T21:19:18.001Z,47.40
2022-12-06T21:23:12.956Z,49.00
2022-12-06T21:27:05.087Z,58.80
2022-12-06T21:30:58.030Z,51.70
2022-12-06T21:34:50.170Z,57.20
2022-12-06T21:38:45.202Z,60.60
2022-12-06T21:42:39.540Z,82.90
2022-12-06T21:46:34.705Z,69.00
2022-12-06T21:50:26.702Z,56.40
2022-12-06T21:54:21.915Z,49.50
2022-12-06T21:58:16.754Z,44.00
2022-12-06T22:02:12.489Z,59.00
2022-12-06T22:06:11.958Z,54.20
2022-12-06T22:10:02.456Z,40.00
2022-12-06T22:14:05.930Z,44.30
2022-12-06T22:18:08.765Z,43.80
2022-12-06T22:22:04.611Z,38.30
2022-12-06T22:25:58.988Z,37.20
2022-12-06T22:29:54.333Z,43.60
2022-12-06T22:33:47.874Z,40.50
2022-12-06T22:37:41.038Z,36.70
2022-12-06T22:41:32.784Z,27.30
2022-12-06T22:45:22.980Z,33.00
2022-12-06T22:49:17.873Z,31.10
2022-12-06T22:53:08.565Z,29.60
2022-12-06T22:56:58.588Z,33.10
2022-12-06T23:00:48.374Z,26.90
2022-12-06T23:04:38.365Z,26.40
2022-12-06T23:08:32.493Z,23.20
2022-12-06T23:12:27.688Z,32.10
2022-12-06T23:16:29.681Z,25.50
2022-12-06T23:20:24.061Z,23.30
2022-12-06T23:24:18.474Z,25.90
2022-12-06T23:28:12.010Z,27.00
2022-12-06T23:32:02.409Z,29.60
2022-12-06T23:36:19.131Z,29.50
2022-12-06T23:40:17.417Z,30.10
2022-12-06T23:44:09.554Z,30.10
2022-12-06T23:47:59.552Z,28.10
2022-12-06T23:51:49.758Z,26.50
2022-12-06T23:55:40.254Z,29.00
2022-12-06T23:59:30.658Z,28.50
